Time;durP1;ratioP1;P1;durP2;ratioP2;P2;SDS_P1;SDS_P2;PMS_P1;PMS_P2;Temp;Humidity;BMP_temperature;BMP_pressure;BME280_temperature;BME280_humidity;BME280_pressure;Samples;Min_cycle;Max_cycle;Signal;HPM_P1;HPM_P2
2022/04/18 00:01:30;;;;;;;29.75;13.80;;;;;;;;;;6146346;29;20024;-78
2022/04/18 00:04:30;;;;;;;30.13;13.90;;;;;;;;;;6147006;29;20023;-78
2022/04/18 00:07:30;;;;;;;34.10;13.73;;;;;;;;;;6129382;29;20038;-78
2022/04/18 00:10:30;;;;;;;29.70;12.43;;;;;;;;;;6146545;28;20368;-78
2022/04/18 00:13:31;;;;;;;30.23;12.93;;;;;;;;;;6146072;29;20043;-77
2022/04/18 00:16:31;;;;;;;30.58;13.60;;;;;;;;;;6140400;28;20031;-77
2022/04/18 00:19:31;;;;;;;35.13;13.70;;;;;;;;;;6129069;29;20041;-77
2022/04/18 00:22:32;;;;;;;29.73;13.60;;;;;;;;;;6129043;29;20452;-77
2022/04/18 00:25:32;;;;;;;29.45;13.82;;;;;;;;;;6146505;28;20479;-77
2022/04/18 00:28:32;;;;;;;30.30;13.82;;;;;;;;;;6146106;29;20410;-77
2022/04/18 00:31:33;;;;;;;39.00;15.45;;;;;;;;;;6128625;29;20158;-77
2022/04/18 00:34:33;;;;;;;33.25;15.00;;;;;;;;;;6149024;28;20435;-77
2022/04/18 00:37:36;;;;;;;31.15;14.10;;;;;;;;;;6134042;29;20458;-77
2022/04/18 00:40:36;;;;;;;29.88;13.15;;;;;;;;;;6150849;29;20530;-77
2022/04/18 00:43:41;;;;;;;36.30;14.57;;;;;;;;;;6133404;29;20026;-77
2022/04/18 00:46:41;;;;;;;30.67;14.23;;;;;;;;;;6133776;29;20402;-77
2022/04/18 00:49:41;;;;;;;38.38;16.85;;;;;;;;;;6151085;29;20026;-77
2022/04/18 00:52:41;;;;;;;38.22;14.93;;;;;;;;;;6125433;29;20118;-78
2022/04/18 00:55:42;;;;;;;34.40;14.73;;;;;;;;;;6141100;28;20027;-77
2022/04/18 00:58:42;;;;;;;37.38;14.52;;;;;;;;;;6133554;29;20106;-77
2022/04/18 01:01:43;;;;;;;29.27;15.68;;;;;;;;;;6149121;29;20367;-78
2022/04/18 01:04:43;;;;;;;42.13;19.03;;;;;;;;;;6149230;29;20027;-79
2022/04/18 01:07:43;;;;;;;38.83;19.20;;;;;;;;;;6149459;29;20634;-79
2022/04/18 01:10:44;;;;;;;41.30;16.10;;;;;;;;;;6149732;29;20277;-79
2022/04/18 01:13:45;;;;;;;40.60;16.60;;;;;;;;;;6149728;29;20023;-78
2022/04/18 01:16:46;;;;;;;42.42;17.05;;;;;;;;;;6149126;29;20292;-78
2022/04/18 01:19:46;;;;;;;34.45;16.40;;;;;;;;;;6132863;29;20023;-79
2022/04/18 01:22:49;;;;;;;30.77;16.20;;;;;;;;;;6148461;28;20030;-79
2022/04/18 01:29:08;;;;;;;34.47;14.30;;;;;;;;;;6147293;29;20070;-79
2022/04/18 01:32:08;;;;;;;34.00;16.52;;;;;;;;;;6132191;29;20073;-79
2022/04/18 01:35:09;;;;;;;40.20;18.20;;;;;;;;;;6149977;29;20102;-79
2022/04/18 01:38:09;;;;;;;45.33;20.02;;;;;;;;;;6132484;29;20019;-79
2022/04/18 01:41:09;;;;;;;39.65;17.75;;;;;;;;;;6150157;29;20020;-79
2022/04/18 01:44:09;;;;;;;40.97;17.25;;;;;;;;;;6148617;28;20050;-79
2022/04/18 01:47:10;;;;;;;40.25;16.55;;;;;;;;;;6132823;29;20030;-80
2022/04/18 01:50:10;;;;;;;38.58;16.05;;;;;;;;;;6131989;29;20027;-81
2022/04/18 01:53:10;;;;;;;39.53;16.90;;;;;;;;;;6125734;29;20027;-81
2022/04/18 01:56:10;;;;;;;47.28;15.80;;;;;;;;;;6143881;28;20372;-81
2022/04/18 01:59:11;;;;;;;43.20;18.30;;;;;;;;;;6149576;29;20023;-81
2022/04/18 02:02:11;;;;;;;38.10;18.50;;;;;;;;;;6132184;29;20145;-81
2022/04/18 02:05:11;;;;;;;35.17;17.00;;;;;;;;;;6149309;29;20023;-82
2022/04/18 02:08:11;;;;;;;38.03;16.98;;;;;;;;;;6131939;29;20066;-82
2022/04/18 02:11:12;;;;;;;36.30;16.77;;;;;;;;;;6149198;29;21079;-82
2022/04/18 02:14:12;;;;;;;38.50;17.08;;;;;;;;;;6131878;29;20050;-81
2022/04/18 02:17:12;;;;;;;37.90;15.20;;;;;;;;;;6132136;29;20031;-81
2022/04/18 02:20:13;;;;;;;37.80;14.57;;;;;;;;;;6148988;29;20030;-81
2022/04/18 02:23:13;;;;;;;37.28;15.98;;;;;;;;;;6149007;29;20032;-82
2022/04/18 02:26:13;;;;;;;34.17;17.70;;;;;;;;;;6163869;28;20503;-81
2022/04/18 02:29:13;;;;;;;39.47;18.75;;;;;;;;;;6132053;29;20078;-81
2022/04/18 02:35:32;;;;;;;40.45;19.10;;;;;;;;;;6149362;29;20038;-81
2022/04/18 02:38:33;;;;;;;44.13;19.73;;;;;;;;;;6132440;29;20387;-81
2022/04/18 02:41:33;;;;;;;52.83;22.13;;;;;;;;;;6148512;29;20081;-80
2022/04/18 02:44:33;;;;;;;36.95;20.33;;;;;;;;;;6132240;29;20381;-80
2022/04/18 02:47:33;;;;;;;31.80;15.50;;;;;;;;;;6148598;29;20497;-80
2022/04/18 02:50:34;;;;;;;31.65;16.75;;;;;;;;;;6148870;29;20055;-80
2022/04/18 02:53:34;;;;;;;38.28;19.02;;;;;;;;;;6130780;29;20450;-80
2022/04/18 02:56:35;;;;;;;37.53;18.13;;;;;;;;;;6148074;28;20023;-80
2022/04/18 02:59:36;;;;;;;34.00;16.60;;;;;;;;;;6148595;29;20016;-79
2022/04/18 03:02:36;;;;;;;32.78;16.98;;;;;;;;;;6148959;29;20028;-79
2022/04/18 03:05:37;;;;;;;44.35;18.60;;;;;;;;;;6130578;29;20023;-79
2022/04/18 03:08:37;;;;;;;39.58;18.55;;;;;;;;;;6147990;29;20023;-79
2022/04/18 03:11:37;;;;;;;40.38;19.45;;;;;;;;;;6147168;28;20207;-79
2022/04/18 03:14:37;;;;;;;45.08;21.23;;;;;;;;;;6147651;29;20030;-79
2022/04/18 03:17:37;;;;;;;42.92;20.23;;;;;;;;;;6147159;29;20042;-78
2022/04/18 03:20:38;;;;;;;43.92;17.95;;;;;;;;;;6147082;29;20086;-78
2022/04/18 03:23:38;;;;;;;42.90;19.23;;;;;;;;;;6145576;28;20024;-79
2022/04/18 03:26:38;;;;;;;47.78;20.45;;;;;;;;;;6146646;28;20091;-78
2022/04/18 03:29:38;;;;;;;41.53;20.45;;;;;;;;;;6130084;29;20483;-79
2022/04/18 03:32:39;;;;;;;43.25;19.08;;;;;;;;;;6126944;28;20034;-78
2022/04/18 03:39:50;;;;;;;45.80;19.75;;;;;;;;;;6128071;29;20046;-78
2022/04/18 03:42:19;;;;;;;42.22;19.23;;;;;;;;;;6144986;29;20470;-78
2022/04/18 03:45:19;;;;;;;45.92;20.08;;;;;;;;;;6145310;29;20019;-78
2022/04/18 03:48:19;;;;;;;45.55;20.23;;;;;;;;;;6146868;29;20057;-78
2022/04/18 03:51:19;;;;;;;45.80;20.02;;;;;;;;;;6146768;28;20051;-78
2022/04/18 03:54:20;;;;;;;45.47;21.33;;;;;;;;;;6145298;28;20037;-78
2022/04/18 03:57:20;;;;;;;49.33;21.83;;;;;;;;;;6146641;29;20037;-79
2022/04/18 04:00:20;;;;;;;45.25;23.13;;;;;;;;;;6129182;29;20516;-78
2022/04/18 04:03:20;;;;;;;53.17;24.42;;;;;;;;;;6146526;29;20030;-79
2022/04/18 04:06:20;;;;;;;52.45;24.10;;;;;;;;;;6146629;29;20038;-78
2022/04/18 04:09:21;;;;;;;52.92;22.90;;;;;;;;;;6129013;29;20055;-78
2022/04/18 04:12:25;;;;;;;55.83;25.55;;;;;;;;;;6128837;29;20034;-78
2022/04/18 04:15:25;;;;;;;56.95;26.33;;;;;;;;;;6146724;29;20550;-78
2022/04/18 04:18:25;;;;;;;58.95;25.00;;;;;;;;;;6146490;29;20031;-78
2022/04/18 04:21:25;;;;;;;56.20;25.65;;;;;;;;;;6145431;29;20027;-78
2022/04/18 04:24:26;;;;;;;59.43;25.37;;;;;;;;;;6146350;28;20030;-78
2022/04/18 04:27:26;;;;;;;64.07;28.80;;;;;;;;;;6134667;29;20650;-78
2022/04/18 04:30:26;;;;;;;64.82;32.42;;;;;;;;;;6122768;29;20024;-78
2022/04/18 04:33:26;;;;;;;58.78;30.67;;;;;;;;;;6122558;29;20024;-78
2022/04/18 04:36:27;;;;;;;56.25;27.13;;;;;;;;;;6143360;29;20404;-78
2022/04/18 04:39:27;;;;;;;47.28;23.08;;;;;;;;;;6145954;29;20462;-78
2022/04/18 04:42:27;;;;;;;52.33;24.73;;;;;;;;;;6128587;29;20033;-78
2022/04/18 04:45:27;;;;;;;52.17;22.88;;;;;;;;;;6144745;28;20391;-78
2022/04/18 04:48:28;;;;;;;51.08;22.85;;;;;;;;;;6146118;29;20024;-77
2022/04/18 04:51:28;;;;;;;56.33;26.05;;;;;;;;;;6146146;29;20031;-77
2022/04/18 04:54:28;;;;;;;47.67;23.25;;;;;;;;;;6128983;28;20035;-77
2022/04/18 04:57:28;;;;;;;49.00;24.27;;;;;;;;;;6128247;29;20495;-78
2022/04/18 05:00:29;;;;;;;49.67;23.77;;;;;;;;;;6146060;29;20093;-78
2022/04/18 05:03:30;;;;;;;49.83;23.80;;;;;;;;;;6143389;29;20639;-79
2022/04/18 05:06:30;;;;;;;51.33;24.63;;;;;;;;;;6143643;29;20575;-78
2022/04/18 05:09:30;;;;;;;49.88;21.77;;;;;;;;;;6143015;29;20392;-79
2022/04/18 05:12:32;;;;;;;62.67;24.60;;;;;;;;;;6122922;29;20027;-79
2022/04/18 05:15:33;;;;;;;55.67;25.00;;;;;;;;;;6151006;28;20030;-79
2022/04/18 05:18:33;;;;;;;49.28;24.55;;;;;;;;;;6170724;28;20022;-79
2022/04/18 05:21:34;;;;;;;56.78;25.30;;;;;;;;;;6164395;28;20032;-80
2022/04/18 05:24:34;;;;;;;55.70;26.17;;;;;;;;;;6149098;28;20016;-81
2022/04/18 05:27:34;;;;;;;50.30;25.80;;;;;;;;;;6148492;28;20063;-82
2022/04/18 05:30:36;;;;;;;51.93;24.90;;;;;;;;;;6148840;29;20267;-82
2022/04/18 05:33:36;;;;;;;;;;;;;;;;;;6149082;29;20263;-83
2022/04/18 05:36:36;;;;;;;57.65;26.25;;;;;;;;;;6141737;29;19973;-83
2022/04/18 05:39:37;;;;;;;53.63;25.83;;;;;;;;;;6149122;29;20027;-82
2022/04/18 05:42:37;;;;;;;52.55;30.65;;;;;;;;;;6148798;29;20251;-82
2022/04/18 05:45:38;;;;;;;67.57;32.13;;;;;;;;;;6148812;29;20031;-82
2022/04/18 05:48:38;;;;;;;67.13;35.55;;;;;;;;;;6148722;29;20030;-83
2022/04/18 05:51:38;;;;;;;64.17;31.60;;;;;;;;;;6147819;29;20085;-83
2022/04/18 05:54:38;;;;;;;52.03;27.90;;;;;;;;;;6148045;28;20334;-83
2022/04/18 05:57:39;;;;;;;56.00;29.20;;;;;;;;;;6147836;29;20786;-83
2022/04/18 06:00:39;;;;;;;46.60;28.43;;;;;;;;;;6146804;29;20027;-83
2022/04/18 06:03:40;;;;;;;46.30;24.10;;;;;;;;;;6148873;29;20031;-83
2022/04/18 06:06:40;;;;;;;44.57;24.13;;;;;;;;;;6135222;29;20016;-83
2022/04/18 06:09:40;;;;;;;41.97;26.37;;;;;;;;;;6148510;28;20025;-83
2022/04/18 06:12:41;;;;;;;44.23;24.50;;;;;;;;;;6148546;29;20039;-82
2022/04/18 06:15:41;;;;;;;40.27;24.90;;;;;;;;;;6147464;29;20027;-82
2022/04/18 06:18:41;;;;;;;50.13;29.30;;;;;;;;;;6146995;29;20103;-82
2022/04/18 06:21:41;;;;;;;47.23;23.80;;;;;;;;;;6146752;29;20019;-82
2022/04/18 06:24:42;;;;;;;38.87;25.07;;;;;;;;;;6127494;29;20023;-82
2022/04/18 06:27:42;;;;;;;46.07;25.13;;;;;;;;;;6127414;29;20074;-82
2022/04/18 06:30:43;;;;;;;33.87;20.53;;;;;;;;;;6146071;28;20665;-82
2022/04/18 06:33:43;;;;;;;31.27;17.73;;;;;;;;;;6128069;29;20301;-82
2022/04/18 06:36:43;;;;;;;25.13;14.67;;;;;;;;;;6144421;29;20075;-82
2022/04/18 06:39:44;;;;;;;25.37;14.87;;;;;;;;;;6142252;29;20019;-82
2022/04/18 06:42:44;;;;;;;23.27;13.37;;;;;;;;;;6126822;29;20030;-82
2022/04/18 06:45:44;;;;;;;15.40;9.40;;;;;;;;;;6129097;29;20015;-82
2022/04/18 06:48:44;;;;;;;17.60;9.07;;;;;;;;;;6146604;29;20031;-82
2022/04/18 06:51:45;;;;;;;20.50;8.90;;;;;;;;;;6145356;28;20034;-82
2022/04/18 06:54:45;;;;;;;12.27;7.93;;;;;;;;;;6147068;29;20017;-82
2022/04/18 06:57:45;;;;;;;16.00;8.57;;;;;;;;;;6145710;29;20057;-83
2022/04/18 07:00:46;;;;;;;15.33;8.73;;;;;;;;;;6146838;29;20018;-83
2022/04/18 07:03:46;;;;;;;12.43;7.60;;;;;;;;;;6144048;29;20042;-83
2022/04/18 07:06:46;;;;;;;14.00;7.67;;;;;;;;;;6142540;29;20015;-83
2022/04/18 07:09:47;;;;;;;13.43;7.40;;;;;;;;;;6142341;29;20031;-83
2022/04/18 07:12:47;;;;;;;10.27;5.90;;;;;;;;;;6106604;29;20455;-83
2022/04/18 07:15:47;;;;;;;9.50;5.43;;;;;;;;;;6139856;29;20382;-83
2022/04/18 07:18:47;;;;;;;7.37;4.80;;;;;;;;;;6147043;29;20368;-83
2022/04/18 07:21:48;;;;;;;10.00;5.00;;;;;;;;;;6146943;29;20022;-82
2022/04/18 07:24:48;;;;;;;8.10;4.33;;;;;;;;;;6147495;28;20078;-82
2022/04/18 07:27:48;;;;;;;12.47;6.13;;;;;;;;;;6146494;28;20047;-82
2022/04/18 07:30:48;;;;;;;9.80;5.63;;;;;;;;;;6143535;29;20019;-82
2022/04/18 07:33:53;;;;;;;9.70;5.30;;;;;;;;;;6141901;29;20015;-82
2022/04/18 07:36:53;;;;;;;8.50;4.70;;;;;;;;;;6143394;29;20031;-82
2022/04/18 07:39:53;;;;;;;7.30;4.07;;;;;;;;;;6141383;29;20064;-82
2022/04/18 07:42:53;;;;;;;11.83;4.97;;;;;;;;;;6129593;29;20371;-82
2022/04/18 07:45:53;;;;;;;9.53;4.83;;;;;;;;;;6145213;29;20475;-82
2022/04/18 07:48:54;;;;;;;8.43;4.30;;;;;;;;;;6146039;29;20023;-82
2022/04/18 07:51:54;;;;;;;7.23;4.13;;;;;;;;;;6146654;29;20023;-82
2022/04/18 07:54:54;;;;;;;6.53;4.07;;;;;;;;;;6126200;28;20336;-82
2022/04/18 07:57:55;;;;;;;8.17;3.47;;;;;;;;;;6143097;29;20023;-82
2022/04/18 08:00:55;;;;;;;4.43;2.80;;;;;;;;;;6130103;29;20378;-82
2022/04/18 08:03:57;;;;;;;6.40;3.70;;;;;;;;;;6143088;29;20039;-82
2022/04/18 08:06:57;;;;;;;13.40;4.55;;;;;;;;;;6126549;29;20054;-81
2022/04/18 08:09:57;;;;;;;7.50;3.50;;;;;;;;;;6142020;29;20015;-81
2022/04/18 08:12:57;;;;;;;6.93;4.03;;;;;;;;;;6141887;29;20012;-81
2022/04/18 08:15:58;;;;;;;7.83;3.60;;;;;;;;;;6125197;29;20478;-80
2022/04/18 08:18:58;;;;;;;8.23;3.87;;;;;;;;;;6142928;29;20376;-80
2022/04/18 08:21:58;;;;;;;10.23;4.70;;;;;;;;;;6128184;29;20011;-80
2022/04/18 08:24:59;;;;;;;11.18;4.65;;;;;;;;;;6145452;28;20071;-80
2022/04/18 08:27:59;;;;;;;13.40;7.85;;;;;;;;;;6123782;29;20175;-80
2022/04/18 08:31:00;;;;;;;11.67;5.63;;;;;;;;;;6141951;29;20034;-81
2022/04/18 08:34:00;;;;;;;4.93;2.77;;;;;;;;;;6126597;29;20062;-82
2022/04/18 08:37:00;;;;;;;8.77;3.47;;;;;;;;;;6145352;29;20562;-81
2022/04/18 08:40:01;;;;;;;11.27;3.97;;;;;;;;;;6145717;29;20034;-80
2022/04/18 08:43:01;;;;;;;13.23;3.90;;;;;;;;;;6108210;29;20020;-81
2022/04/18 08:46:04;;;;;;;11.57;3.88;;;;;;;;;;6129828;29;20511;-81
2022/04/18 08:55:43;;;;;;;8.88;3.75;;;;;;;;;;6139697;28;20530;-81
2022/04/18 08:58:43;;;;;;;7.10;3.67;;;;;;;;;;6151312;29;20031;-81
2022/04/18 09:01:47;;;;;;;8.97;3.63;;;;;;;;;;6133651;29;20055;-82
2022/04/18 09:04:48;;;;;;;5.15;3.28;;;;;;;;;;6133186;29;20534;-81
2022/04/18 09:08:01;;;;;;;6.28;3.45;;;;;;;;;;6150021;29;20078;-81
2022/04/18 09:11:02;;;;;;;6.93;3.80;;;;;;;;;;6146740;28;20069;-81
2022/04/18 09:14:05;;;;;;;6.67;2.83;;;;;;;;;;6174215;28;20026;-81
2022/04/18 09:17:07;;;;;;;7.00;3.22;;;;;;;;;;6140065;29;20294;-81
2022/04/18 09:20:07;;;;;;;7.47;3.97;;;;;;;;;;6133275;29;20015;-81
2022/04/18 09:23:27;;;;;;;6.00;3.13;;;;;;;;;;6150351;29;20043;-82
2022/04/18 09:26:28;;;;;;;8.70;4.00;;;;;;;;;;6150553;28;20043;-82
2022/04/18 09:29:30;;;;;;;7.43;3.53;;;;;;;;;;6150451;29;20027;-82
2022/04/18 09:32:30;;;;;;;9.52;4.18;;;;;;;;;;6149248;29;20259;-82
2022/04/18 09:35:30;;;;;;;8.10;3.10;;;;;;;;;;6148388;29;20027;-82
2022/04/18 09:38:34;;;;;;;6.70;2.90;;;;;;;;;;6150313;29;20301;-82
2022/04/18 09:41:35;;;;;;;7.35;3.80;;;;;;;;;;6149839;29;20345;-82
2022/04/18 09:44:36;;;;;;;6.73;3.40;;;;;;;;;;6149898;29;20031;-82
2022/04/18 09:47:36;;;;;;;9.80;4.13;;;;;;;;;;6150346;29;20259;-81
2022/04/18 09:54:10;;;;;;;9.75;3.70;;;;;;;;;;6138772;28;20030;-81
2022/04/18 09:57:11;;;;;;;6.53;2.80;;;;;;;;;;6150091;29;20023;-81
2022/04/18 10:00:11;;;;;;;5.38;3.03;;;;;;;;;;6133059;29;20030;-82
2022/04/18 10:03:12;;;;;;;5.70;2.95;;;;;;;;;;6149888;29;20070;-82
2022/04/18 10:06:12;;;;;;;4.68;2.72;;;;;;;;;;6132193;29;20027;-82
2022/04/18 10:09:13;;;;;;;6.90;2.63;;;;;;;;;;6132520;29;20396;-82
2022/04/18 10:12:13;;;;;;;7.43;3.20;;;;;;;;;;6149355;29;20118;-82
2022/04/18 10:15:13;;;;;;;8.90;3.13;;;;;;;;;;6132226;29;20483;-83
2022/04/18 10:18:17;;;;;;;6.65;3.25;;;;;;;;;;6149540;29;20077;-83
2022/04/18 10:21:30;;;;;;;6.53;4.70;;;;;;;;;;6132079;29;20414;-82
2022/04/18 10:24:39;;;;;;;7.90;5.32;;;;;;;;;;6132297;28;20015;-83
2022/04/18 10:27:48;;;;;;;6.70;4.32;;;;;;;;;;6143544;28;20040;-82
2022/04/18 10:31:00;;;;;;;8.68;4.60;;;;;;;;;;6146236;29;20077;-82
2022/04/18 10:34:00;;;;;;;8.48;4.05;;;;;;;;;;6129623;28;20479;-81
2022/04/18 10:37:01;;;;;;;11.55;5.30;;;;;;;;;;6131737;29;20114;-81
2022/04/18 10:40:06;;;;;;;9.75;4.10;;;;;;;;;;6138144;29;20464;-81
2022/04/18 10:43:10;;;;;;;8.50;4.57;;;;;;;;;;6128999;29;20060;-82
2022/04/18 10:46:18;;;;;;;7.95;4.13;;;;;;;;;;6131702;29;20055;-82
2022/04/18 10:49:19;;;;;;;10.80;5.03;;;;;;;;;;6148758;29;20092;-82
2022/04/18 10:52:27;;;;;;;7.78;4.15;;;;;;;;;;6130861;29;20114;-82
2022/04/18 10:55:27;;;;;;;7.43;4.35;;;;;;;;;;6130954;29;20027;-82
2022/04/18 10:58:32;;;;;;;12.47;4.57;;;;;;;;;;6147942;28;20067;-81
2022/04/18 11:01:38;;;;;;;9.43;4.65;;;;;;;;;;6145685;29;20338;-81
2022/04/18 11:04:38;;;;;;;7.22;4.25;;;;;;;;;;6119488;28;20027;-82
2022/04/18 11:07:40;;;;;;;11.00;5.37;;;;;;;;;;6132263;29;20019;-82
2022/04/18 11:10:44;;;;;;;8.77;4.13;;;;;;;;;;6117782;29;20499;-82
2022/04/18 11:13:47;;;;;;;11.80;4.68;;;;;;;;;;6116513;28;20065;-82
2022/04/18 11:16:49;;;;;;;9.95;3.75;;;;;;;;;;6142609;28;20109;-81
2022/04/18 11:19:49;;;;;;;6.40;3.75;;;;;;;;;;6124179;29;20070;-81
2022/04/18 11:23:08;;;;;;;5.83;3.07;;;;;;;;;;6126331;29;20019;-81
2022/04/18 11:26:09;;;;;;;9.90;4.55;;;;;;;;;;6136765;28;20452;-81
2022/04/18 11:29:09;;;;;;;8.23;4.00;;;;;;;;;;6138561;28;20039;-82
2022/04/18 11:32:13;;;;;;;12.63;4.53;;;;;;;;;;6126381;28;20015;-82
2022/04/18 11:35:14;;;;;;;9.25;4.68;;;;;;;;;;6146026;28;20032;-82
2022/04/18 11:38:14;;;;;;;7.13;3.58;;;;;;;;;;6145233;29;20054;-82
2022/04/18 11:41:15;;;;;;;10.35;3.30;;;;;;;;;;6122934;29;20483;-82
2022/04/18 11:44:21;;;;;;;6.23;4.07;;;;;;;;;;6126472;29;20062;-82
2022/04/18 11:47:23;;;;;;;5.78;2.92;;;;;;;;;;6145460;29;20365;-81
2022/04/18 11:50:23;;;;;;;7.57;3.90;;;;;;;;;;6128956;29;20027;-82
2022/04/18 11:53:29;;;;;;;10.27;5.90;;;;;;;;;;6142513;29;20115;-81
2022/04/18 11:56:30;;;;;;;8.32;4.10;;;;;;;;;;6125499;29;20446;-82
2022/04/18 11:59:30;;;;;;;7.87;3.70;;;;;;;;;;6124921;29;20023;-82
2022/04/18 12:09:12;;;;;;;10.27;3.40;;;;;;;;;;6141669;29;20391;-81
2022/04/18 12:12:26;;;;;;;8.05;3.90;;;;;;;;;;6126047;29;20116;-81
2022/04/18 12:15:28;;;;;;;9.18;3.83;;;;;;;;;;6143231;29;20026;-81
2022/04/18 12:18:28;;;;;;;8.82;4.18;;;;;;;;;;6141459;29;20027;-81
2022/04/18 12:21:29;;;;;;;7.97;4.53;;;;;;;;;;6131876;28;20027;-81
2022/04/18 12:24:38;;;;;;;7.20;3.43;;;;;;;;;;6125298;28;20035;-81
2022/04/18 12:27:38;;;;;;;9.70;4.10;;;;;;;;;;6131247;28;20052;-81
2022/04/18 12:30:39;;;;;;;4.03;2.67;;;;;;;;;;6144727;28;20034;-81
2022/04/18 12:33:47;;;;;;;5.90;3.30;;;;;;;;;;6147514;29;20027;-81
2022/04/18 12:36:57;;;;;;;5.95;3.20;;;;;;;;;;6124870;29;20028;-81
2022/04/18 12:40:27;;;;;;;10.15;4.68;;;;;;;;;;6117884;29;20577;-81
2022/04/18 12:43:28;;;;;;;6.22;3.55;;;;;;;;;;6117123;29;20068;-81
2022/04/18 12:46:29;;;;;;;5.37;3.10;;;;;;;;;;6125377;29;20027;-82
2022/04/18 12:49:29;;;;;;;6.88;3.70;;;;;;;;;;6123682;29;20763;-82
2022/04/18 12:52:30;;;;;;;5.95;2.90;;;;;;;;;;6144221;29;20835;-82
2022/04/18 12:55:30;;;;;;;8.60;3.87;;;;;;;;;;6148904;28;20475;-82
2022/04/18 12:58:37;;;;;;;6.60;3.43;;;;;;;;;;6131664;29;20023;-82
2022/04/18 13:01:39;;;;;;;6.88;3.58;;;;;;;;;;6148270;28;20027;-82
2022/04/18 13:04:40;;;;;;;6.28;3.42;;;;;;;;;;6145393;28;20031;-82
2022/04/18 13:07:40;;;;;;;11.00;3.70;;;;;;;;;;6147392;29;20040;-82
2022/04/18 13:10:41;;;;;;;7.37;3.93;;;;;;;;;;6129127;29;20086;-82
2022/04/18 13:13:42;;;;;;;6.53;3.77;;;;;;;;;;6144673;29;20070;-82
2022/04/18 13:16:42;;;;;;;9.45;4.28;;;;;;;;;;6128978;29;20023;-82
2022/04/18 13:19:43;;;;;;;10.13;4.80;;;;;;;;;;6129515;29;20114;-82
2022/04/18 13:22:43;;;;;;;7.30;3.50;;;;;;;;;;6148924;29;20030;-82
2022/04/18 13:25:44;;;;;;;6.73;3.37;;;;;;;;;;6131317;29;20059;-82
2022/04/18 13:28:44;;;;;;;5.73;3.57;;;;;;;;;;6146398;29;20134;-82
2022/04/18 13:31:45;;;;;;;4.67;2.63;;;;;;;;;;6130218;29;20039;-82
2022/04/18 13:34:45;;;;;;;6.53;2.60;;;;;;;;;;6129688;29;20019;-82
2022/04/18 13:37:46;;;;;;;9.60;2.95;;;;;;;;;;6149418;29;20046;-82
2022/04/18 13:40:46;;;;;;;6.20;3.37;;;;;;;;;;6133531;29;20030;-82
2022/04/18 13:43:47;;;;;;;6.40;2.93;;;;;;;;;;6149870;29;20019;-82
2022/04/18 13:46:47;;;;;;;6.43;3.40;;;;;;;;;;6149478;29;20019;-82
2022/04/18 13:49:47;;;;;;;7.93;3.33;;;;;;;;;;6149618;29;20539;-82
2022/04/18 13:52:48;;;;;;;7.67;4.50;;;;;;;;;;6170123;28;20038;-83
2022/04/18 13:55:49;;;;;;;5.00;2.87;;;;;;;;;;6156881;28;20039;-82
2022/04/18 13:58:50;;;;;;;;;;;;;;;;;;6131572;29;20055;-81
2022/04/18 14:01:50;;;;;;;6.72;2.83;;;;;;;;;;6130715;29;19961;-82
2022/04/18 14:04:50;;;;;;;5.50;3.10;;;;;;;;;;6130514;29;20028;-82
2022/04/18 14:07:50;;;;;;;10.63;4.05;;;;;;;;;;6131913;29;20121;-82
2022/04/18 14:10:51;;;;;;;9.33;4.13;;;;;;;;;;6132337;29;20034;-82
2022/04/18 14:13:51;;;;;;;7.30;3.47;;;;;;;;;;6148806;29;20385;-82
2022/04/18 14:20:28;;;;;;;7.38;3.25;;;;;;;;;;6148820;29;20399;-82
2022/04/18 14:23:28;;;;;;;9.63;4.82;;;;;;;;;;6148686;29;20020;-81
2022/04/18 14:26:29;;;;;;;8.32;3.25;;;;;;;;;;6148400;28;20054;-81
2022/04/18 14:29:29;;;;;;;5.85;3.30;;;;;;;;;;6149108;29;20431;-81
2022/04/18 14:32:29;;;;;;;7.10;3.70;;;;;;;;;;6130721;29;20027;-81
2022/04/18 14:35:29;;;;;;;7.40;3.30;;;;;;;;;;6137537;29;20082;-81
2022/04/18 14:38:29;;;;;;;8.77;4.28;;;;;;;;;;6148506;29;20387;-81
2022/04/18 14:41:30;;;;;;;6.47;3.17;;;;;;;;;;6148162;29;20067;-81
2022/04/18 14:44:30;;;;;;;4.47;2.55;;;;;;;;;;6130595;29;20082;-81
2022/04/18 14:47:30;;;;;;;3.63;2.17;;;;;;;;;;6147984;29;20118;-81
2022/04/18 14:50:31;;;;;;;4.77;2.87;;;;;;;;;;6131019;29;20397;-81
2022/04/18 14:53:31;;;;;;;4.88;2.67;;;;;;;;;;6129996;29;20031;-81
2022/04/18 14:56:31;;;;;;;6.50;2.58;;;;;;;;;;6148117;28;20035;-81
2022/04/18 14:59:32;;;;;;;4.95;3.15;;;;;;;;;;6147541;29;20364;-82
2022/04/18 15:02:32;;;;;;;6.15;2.53;;;;;;;;;;6130308;29;20029;-81
2022/04/18 15:05:33;;;;;;;7.88;3.85;;;;;;;;;;6130035;29;20020;-81
2022/04/18 15:08:33;;;;;;;8.10;3.53;;;;;;;;;;6147788;29;20034;-81
2022/04/18 15:11:33;;;;;;;9.82;3.80;;;;;;;;;;6130114;29;20402;-81
2022/04/18 15:14:34;;;;;;;6.72;3.63;;;;;;;;;;6130322;29;20427;-81
2022/04/18 15:17:34;;;;;;;4.38;2.95;;;;;;;;;;6147004;28;20098;-81
2022/04/18 15:20:34;;;;;;;7.43;2.70;;;;;;;;;;6147881;29;20031;-81
2022/04/18 15:23:35;;;;;;;8.68;3.78;;;;;;;;;;6147923;29;20034;-80
2022/04/18 15:26:35;;;;;;;5.85;2.50;;;;;;;;;;6147732;28;20043;-80
2022/04/18 15:29:36;;;;;;;5.25;3.35;;;;;;;;;;6130438;29;20039;-80
2022/04/18 15:32:36;;;;;;;5.88;3.15;;;;;;;;;;6129902;29;20023;-81
2022/04/18 15:35:36;;;;;;;6.72;3.53;;;;;;;;;;6146916;29;20019;-81
2022/04/18 15:38:37;;;;;;;10.10;4.37;;;;;;;;;;6147448;29;20043;-81
2022/04/18 15:41:37;;;;;;;6.38;3.38;;;;;;;;;;6129241;29;20299;-81
2022/04/18 15:44:37;;;;;;;6.20;3.53;;;;;;;;;;6129649;28;20418;-81
2022/04/18 15:47:39;;;;;;;8.88;3.80;;;;;;;;;;6146676;29;20107;-81
2022/04/18 15:50:40;;;;;;;10.63;4.65;;;;;;;;;;6147446;29;20027;-81
2022/04/18 15:53:40;;;;;;;7.30;4.05;;;;;;;;;;6147150;29;20455;-81
2022/04/18 15:56:41;;;;;;;9.87;4.00;;;;;;;;;;6146753;28;20114;-81
2022/04/18 15:59:41;;;;;;;8.82;4.07;;;;;;;;;;6142452;28;20405;-81
2022/04/18 16:02:41;;;;;;;7.60;3.63;;;;;;;;;;6129813;29;20027;-81
2022/04/18 16:05:43;;;;;;;9.80;4.50;;;;;;;;;;6126198;29;20454;-81
2022/04/18 16:08:43;;;;;;;6.32;3.80;;;;;;;;;;6145439;29;20023;-82
2022/04/18 16:11:43;;;;;;;5.27;2.80;;;;;;;;;;6120663;28;20039;-82
2022/04/18 16:14:44;;;;;;;8.07;3.78;;;;;;;;;;6142040;28;20275;-82
2022/04/18 16:17:44;;;;;;;8.90;4.17;;;;;;;;;;6139961;29;20035;-82
2022/04/18 16:20:44;;;;;;;7.30;4.23;;;;;;;;;;6137737;29;20337;-82
2022/04/18 16:23:44;;;;;;;9.60;4.57;;;;;;;;;;6122561;29;20285;-81
2022/04/18 16:26:44;;;;;;;12.80;4.20;;;;;;;;;;6121691;29;20771;-82
2022/04/18 16:33:03;;;;;;;7.68;3.40;;;;;;;;;;6141284;28;20298;-81
2022/04/18 16:36:04;;;;;;;6.03;3.15;;;;;;;;;;6128499;29;20359;-81
2022/04/18 16:39:04;;;;;;;6.13;3.42;;;;;;;;;;6146252;29;20106;-81
2022/04/18 16:48:42;;;;;;;12.13;6.50;;;;;;;;;;6145061;28;20039;-81
2022/04/18 16:51:44;;;;;;;8.07;4.17;;;;;;;;;;6143277;28;20101;-82
2022/04/18 16:54:44;;;;;;;10.65;5.82;;;;;;;;;;6131359;28;20683;-81
2022/04/18 16:57:44;;;;;;;7.75;4.75;;;;;;;;;;6120492;28;20101;-81
2022/04/18 17:00:45;;;;;;;11.38;5.53;;;;;;;;;;6126766;28;20058;-82
2022/04/18 17:03:45;;;;;;;15.52;6.03;;;;;;;;;;6135988;28;20023;-82
2022/04/18 17:06:45;;;;;;;10.25;5.43;;;;;;;;;;6143225;28;20051;-82
2022/04/18 17:09:45;;;;;;;12.63;5.43;;;;;;;;;;6144094;28;20019;-82
2022/04/18 17:12:46;;;;;;;15.40;6.10;;;;;;;;;;6127070;29;20019;-82
2022/04/18 17:15:46;;;;;;;15.00;6.17;;;;;;;;;;6139608;28;20263;-82
2022/04/18 17:18:46;;;;;;;15.00;5.80;;;;;;;;;;6140208;28;20362;-81
2022/04/18 17:21:47;;;;;;;23.67;9.93;;;;;;;;;;6144288;29;20019;-81
2022/04/18 17:24:47;;;;;;;25.08;12.13;;;;;;;;;;6126690;28;20019;-81
2022/04/18 17:27:47;;;;;;;23.80;10.67;;;;;;;;;;6124853;29;20047;-81
2022/04/18 17:30:48;;;;;;;16.87;8.13;;;;;;;;;;6127847;29;20286;-81
2022/04/18 17:33:48;;;;;;;17.90;7.78;;;;;;;;;;6112595;29;20279;-81
2022/04/18 17:36:48;;;;;;;18.35;7.78;;;;;;;;;;6128257;29;20408;-82
2022/04/18 17:39:49;;;;;;;14.13;6.25;;;;;;;;;;6129788;29;20030;-81
2022/04/18 17:42:49;;;;;;;13.38;5.70;;;;;;;;;;6129916;28;20027;-81
2022/04/18 17:45:49;;;;;;;19.77;8.27;;;;;;;;;;6128167;29;20082;-81
2022/04/18 17:48:49;;;;;;;19.52;8.85;;;;;;;;;;6146105;29;20355;-81
2022/04/18 17:51:50;;;;;;;20.13;8.23;;;;;;;;;;6128387;29;20554;-81
2022/04/18 17:58:09;;;;;;;23.08;11.68;;;;;;;;;;6146838;29;20031;-82
2022/04/18 18:01:09;;;;;;;24.17;12.05;;;;;;;;;;6148806;29;20085;-82
2022/04/18 18:04:10;;;;;;;23.88;11.38;;;;;;;;;;6147298;29;20031;-82
2022/04/18 18:07:10;;;;;;;13.43;6.47;;;;;;;;;;6146805;28;20027;-82
2022/04/18 18:10:11;;;;;;;14.67;7.20;;;;;;;;;;6123057;29;20019;-81
2022/04/18 18:13:11;;;;;;;19.42;7.50;;;;;;;;;;6111135;29;20699;-82
2022/04/18 18:16:12;;;;;;;20.27;8.52;;;;;;;;;;6138371;28;20038;-82
2022/04/18 18:19:12;;;;;;;17.08;8.68;;;;;;;;;;6141271;28;20031;-82
2022/04/18 18:22:13;;;;;;;21.67;8.33;;;;;;;;;;6139913;28;20030;-82
2022/04/18 18:25:13;;;;;;;21.08;8.75;;;;;;;;;;6140090;28;20772;-81
2022/04/18 18:28:13;;;;;;;19.40;7.57;;;;;;;;;;6140990;28;20055;-81
2022/04/18 18:31:14;;;;;;;24.58;10.55;;;;;;;;;;6124569;29;20323;-82
2022/04/18 18:34:14;;;;;;;19.83;8.87;;;;;;;;;;6133281;28;20475;-82